Terminal Aerodrome Forecast
Issued by NWS

Home | Current Version | Previous Version | Graphics & Text | Print | Product List | Glossary On
Versions: 1 2 3 4 5 6 7 8 9 10 11 12 13 14 15 16
095
FTUS43 KGRB 220938 AAA
TAFCWA
TAF AMD
KCWA 220938Z 2210/2306 16005KT P6SM SCT050 BKN100 WS020/29030KT
     FM221200 24006KT P6SM BKN040
     FM221700 28006KT P6SM BKN040
     FM230000 VRB03KT P6SM SCT040 BKN080
      AMD LTD TO CLD VIS AND WIND TIL 221100=

USA.gov is the U.S. government's official web portal to all federal, state and local government web resources and services.